Time;durP1;ratioP1;P1;durP2;ratioP2;P2;SDS_P1;SDS_P2;PMS_P1;PMS_P2;Temp;Humidity;BMP_temperature;BMP_pressure;BME280_temperature;BME280_humidity;BME280_pressure;Samples;Min_cycle;Max_cycle;Signal;HPM_P1;HPM_P2
2022/09/06 00:00:38;;;;;;;6.43;3.00;;;16.70;99.90;;;;;;5009302;28;20030;-59
2022/09/06 00:03:04;;;;;;;6.25;3.00;;;16.70;99.90;;;;;;5009322;28;20030;-59
2022/09/06 00:05:31;;;;;;;6.72;3.22;;;16.60;99.90;;;;;;5007399;28;20037;-60
2022/09/06 00:08:02;;;;;;;9.10;2.83;;;16.60;99.90;;;;;;5009036;28;20033;-59
2022/09/06 00:10:29;;;;;;;7.97;3.70;;;16.60;99.90;;;;;;5007521;28;20026;-59
2022/09/06 00:12:58;;;;;;;10.85;3.30;;;16.50;99.90;;;;;;5008520;28;20045;-60
2022/09/06 00:15:24;;;;;;;8.02;2.90;;;16.50;99.90;;;;;;5007360;28;20034;-59
2022/09/06 00:17:50;;;;;;;6.03;3.83;;;16.50;99.90;;;;;;5009107;28;20034;-59
2022/09/06 00:20:16;;;;;;;5.43;3.35;;;16.50;99.90;;;;;;5007238;28;20022;-59
2022/09/06 00:26:04;;;;;;;8.95;4.03;;;16.40;99.90;;;;;;5007468;28;20093;-59
2022/09/06 00:28:30;;;;;;;6.18;3.45;;;16.40;99.90;;;;;;5010551;28;20034;-59
2022/09/06 00:30:56;;;;;;;6.85;3.85;;;16.50;99.90;;;;;;5012277;28;20025;-59
2022/09/06 00:33:22;;;;;;;6.40;4.07;;;16.60;99.90;;;;;;5010556;28;20057;-59
2022/09/06 00:35:48;;;;;;;9.32;4.40;;;16.60;99.90;;;;;;5012115;28;20026;-59
2022/09/06 00:38:14;;;;;;;5.85;3.67;;;16.50;99.90;;;;;;5010385;28;20034;-59
2022/09/06 00:40:41;;;;;;;5.70;4.30;;;16.50;99.90;;;;;;5012313;28;20083;-59
2022/09/06 00:43:07;;;;;;;9.55;4.88;;;16.40;99.90;;;;;;5011621;28;20058;-59
2022/09/06 00:45:33;;;;;;;11.27;4.38;;;16.40;99.90;;;;;;5010128;28;20395;-59
2022/09/06 00:48:02;;;;;;;6.75;4.20;;;16.40;99.90;;;;;;5011991;28;20037;-59
2022/09/06 00:50:28;;;;;;;8.15;4.78;;;16.30;99.90;;;;;;5009935;28;20390;-59
2022/09/06 00:52:54;;;;;;;8.30;5.82;;;16.30;99.90;;;;;;5011927;28;20396;-59
2022/09/06 00:55:20;;;;;;;8.65;4.63;;;16.30;99.90;;;;;;5010068;28;20022;-59
2022/09/06 00:57:49;;;;;;;9.50;4.90;;;16.30;99.90;;;;;;5011416;28;20483;-59
2022/09/06 01:00:17;;;;;;;5.82;4.53;;;16.20;99.90;;;;;;5010235;28;20098;-59
2022/09/06 01:02:42;;;;;;;8.23;4.78;;;16.20;99.90;;;;;;5011826;28;20116;-59
2022/09/06 01:05:10;;;;;;;6.13;4.22;;;16.20;99.90;;;;;;5011483;28;20461;-59
2022/09/06 01:08:07;;;;;;;8.90;4.60;;;16.20;99.90;;;;;;5010028;28;20474;-60
2022/09/06 01:11:05;;;;;;;9.57;4.72;;;16.10;99.90;;;;;;4993472;28;20056;-59
2022/09/06 01:13:42;;;;;;;7.90;4.88;;;16.10;99.90;;;;;;5000618;28;20104;-60
2022/09/06 01:16:14;;;;;;;5.72;4.28;;;16.20;99.90;;;;;;5011465;28;20482;-59
2022/09/06 01:19:16;;;;;;;12.25;5.18;;;16.20;99.90;;;;;;4998921;28;20061;-59
2022/09/06 01:22:03;;;;;;;9.82;4.72;;;16.20;99.90;;;;;;5011566;28;20026;-59
2022/09/06 01:24:41;;;;;;;6.10;4.70;;;16.10;99.90;;;;;;5009643;28;20029;-58
2022/09/06 01:27:19;;;;;;;7.82;4.45;;;16.10;99.90;;;;;;5006661;28;20064;-58
2022/09/06 01:29:48;;;;;;;6.00;4.88;;;16.00;99.90;;;;;;5006015;28;20035;-58
2022/09/06 01:32:38;;;;;;;8.20;5.32;;;15.90;99.90;;;;;;5009696;28;20049;-58
2022/09/06 01:35:19;;;;;;;9.35;5.68;;;15.90;99.90;;;;;;5009955;28;20045;-58
2022/09/06 01:37:45;;;;;;;9.20;5.00;;;15.80;99.90;;;;;;5003932;28;20041;-58
2022/09/06 01:40:10;;;;;;;7.18;5.10;;;15.70;99.90;;;;;;5010968;28;20026;-58
2022/09/06 01:42:38;;;;;;;9.48;5.43;;;15.70;99.90;;;;;;5008769;28;20034;-58
2022/09/06 01:45:06;;;;;;;10.93;5.53;;;15.70;99.90;;;;;;5011005;28;20120;-58
2022/09/06 01:47:49;;;;;;;8.75;6.05;;;15.70;99.90;;;;;;5008958;28;20458;-58
2022/09/06 01:50:14;;;;;;;10.63;5.68;;;15.70;99.90;;;;;;5009036;28;20048;-58
2022/09/06 01:52:46;;;;;;;9.02;6.35;;;15.60;99.90;;;;;;5010748;28;20037;-58
2022/09/06 01:55:33;;;;;;;7.88;6.20;;;15.60;99.90;;;;;;5005084;28;20032;-58
2022/09/06 01:58:40;;;;;;;9.73;6.28;;;15.60;99.90;;;;;;5010276;28;20076;-58
2022/09/06 02:01:25;;;;;;;10.93;6.30;;;15.60;99.90;;;;;;4981273;28;20038;-58
2022/09/06 02:04:01;;;;;;;9.75;6.15;;;15.60;99.90;;;;;;5010475;28;20097;-58
2022/09/06 02:06:30;;;;;;;8.52;6.10;;;15.60;99.90;;;;;;4999291;28;20145;-58
2022/09/06 02:09:16;;;;;;;8.55;6.10;;;15.70;99.90;;;;;;5010535;28;20072;-58
2022/09/06 02:11:48;;;;;;;10.70;5.90;;;15.80;99.90;;;;;;5002554;28;20116;-58
2022/09/06 02:14:24;;;;;;;8.90;5.70;;;15.80;99.90;;;;;;5005715;28;20092;-58
2022/09/06 02:16:52;;;;;;;7.82;5.03;;;15.70;99.90;;;;;;5003787;28;20065;-58
2022/09/06 02:19:32;;;;;;;9.68;5.10;;;15.70;99.90;;;;;;5008643;28;20474;-57
2022/09/06 02:21:58;;;;;;;11.65;5.70;;;15.70;99.90;;;;;;5009419;28;20034;-58
2022/09/06 02:24:30;;;;;;;9.35;5.32;;;15.70;99.90;;;;;;5008683;28;20038;-58
2022/09/06 02:26:56;;;;;;;12.25;5.20;;;15.70;99.90;;;;;;5009584;28;20033;-59
2022/09/06 02:29:22;;;;;;;7.57;4.28;;;15.70;99.90;;;;;;5008477;28;20048;-58
2022/09/06 02:32:27;;;;;;;10.60;4.63;;;15.60;99.90;;;;;;5009794;28;20046;-58
2022/09/06 02:34:55;;;;;;;8.02;5.05;;;15.70;99.90;;;;;;4932124;29;20131;-58
2022/09/06 02:37:24;;;;;;;7.78;4.55;;;15.60;99.90;;;;;;4935909;29;20137;-58
2022/09/06 02:39:51;;;;;;;8.05;4.85;;;15.60;99.90;;;;;;4936817;29;20078;-58
2022/09/06 02:42:16;;;;;;;9.60;5.03;;;15.60;99.90;;;;;;4932614;29;20092;-58
2022/09/06 02:44:42;;;;;;;8.98;5.20;;;15.50;99.90;;;;;;4941481;28;20073;-58
2022/09/06 02:47:08;;;;;;;12.18;5.10;;;15.60;99.90;;;;;;4937443;29;20483;-58
2022/09/06 02:49:33;;;;;;;9.73;5.47;;;15.60;99.90;;;;;;4935945;29;20024;-58
2022/09/06 02:51:59;;;;;;;11.35;4.53;;;15.60;99.90;;;;;;4940544;29;20074;-58
2022/09/06 02:54:25;;;;;;;13.75;5.13;;;15.60;99.90;;;;;;4945497;29;20066;-58
2022/09/06 02:56:50;;;;;;;5.90;4.03;;;15.50;99.90;;;;;;4936134;29;20036;-57
2022/09/06 02:59:16;;;;;;;8.95;4.38;;;15.50;99.90;;;;;;4933996;29;20042;-58
2022/09/06 03:01:42;;;;;;;6.15;4.53;;;15.50;99.90;;;;;;4948486;29;20504;-58
2022/09/06 03:04:07;;;;;;;14.60;4.90;;;15.40;99.90;;;;;;4941231;29;20118;-58
2022/09/06 03:06:33;;;;;;;9.38;4.90;;;15.40;99.90;;;;;;4993356;28;20045;-60
2022/09/06 03:08:59;;;;;;;6.78;4.47;;;15.40;99.90;;;;;;5008195;28;20030;-58
2022/09/06 03:11:25;;;;;;;8.60;4.88;;;15.30;99.90;;;;;;5006445;28;20046;-58
2022/09/06 03:13:51;;;;;;;9.07;4.68;;;15.30;99.90;;;;;;5009466;28;20111;-58
2022/09/06 03:16:17;;;;;;;6.55;4.95;;;15.20;99.90;;;;;;5007720;28;20108;-58
2022/09/06 03:18:43;;;;;;;10.15;4.95;;;15.20;99.90;;;;;;5009755;28;20075;-58
2022/09/06 03:21:09;;;;;;;9.00;4.95;;;15.10;99.90;;;;;;5009550;28;20030;-58
2022/09/06 03:23:35;;;;;;;9.38;4.38;;;15.00;99.90;;;;;;5007650;28;20477;-58
2022/09/06 03:26:00;;;;;;;4.78;4.18;;;15.00;99.90;;;;;;5009615;28;20128;-58
2022/09/06 03:28:26;;;;;;;9.40;4.90;;;15.00;99.90;;;;;;5007552;28;20116;-59
2022/09/06 03:30:52;;;;;;;5.28;4.22;;;15.00;99.90;;;;;;5009031;28;20038;-57
2022/09/06 03:33:19;;;;;;;6.50;4.68;;;15.00;99.90;;;;;;5007684;28;20383;-58
2022/09/06 03:35:50;;;;;;;6.88;4.60;;;15.00;99.90;;;;;;5009397;28;20034;-59
2022/09/06 03:38:16;;;;;;;9.37;4.73;;;15.00;99.90;;;;;;5002493;28;20046;-58
2022/09/06 03:40:47;;;;;;;9.40;4.82;;;15.10;99.90;;;;;;5009632;28;20037;-58
2022/09/06 03:43:13;;;;;;;7.88;4.32;;;15.10;99.90;;;;;;4990801;28;20046;-59
2022/09/06 03:45:43;;;;;;;6.43;4.15;;;15.00;99.90;;;;;;4993526;28;20433;-59
2022/09/06 03:48:08;;;;;;;7.13;4.15;;;15.00;99.90;;;;;;5001168;28;20120;-59
2022/09/06 03:50:34;;;;;;;10.25;4.82;;;15.10;99.90;;;;;;5006889;28;20121;-59
2022/09/06 03:53:00;;;;;;;7.93;4.40;;;15.30;99.90;;;;;;5008444;28;20404;-59
2022/09/06 03:55:25;;;;;;;9.75;4.68;;;15.40;99.90;;;;;;5007588;28;20030;-59
2022/09/06 03:57:51;;;;;;;7.53;3.80;;;15.40;99.90;;;;;;5011154;28;20026;-59
2022/09/06 04:00:16;;;;;;;11.13;3.80;;;15.40;99.90;;;;;;5009449;28;20481;-59
2022/09/06 04:02:42;;;;;;;9.93;4.03;;;15.30;99.90;;;;;;5012840;28;20089;-59
2022/09/06 04:05:08;;;;;;;7.85;3.60;;;15.20;99.90;;;;;;5012712;28;20034;-60
2022/09/06 04:07:36;;;;;;;11.52;3.72;;;15.20;99.90;;;;;;5010849;28;20033;-59
2022/09/06 04:10:02;;;;;;;7.93;3.20;;;15.20;99.90;;;;;;5012992;28;20144;-59
2022/09/06 04:12:28;;;;;;;6.72;4.10;;;15.10;99.90;;;;;;5010563;28;20042;-59
2022/09/06 04:14:54;;;;;;;11.15;3.10;;;15.10;99.90;;;;;;5012242;28;20057;-59
2022/09/06 04:17:19;;;;;;;8.35;3.97;;;15.10;99.90;;;;;;5009812;28;20026;-59
2022/09/06 04:19:45;;;;;;;12.07;4.45;;;15.00;99.90;;;;;;5012353;28;20448;-58
2022/09/06 04:22:10;;;;;;;11.50;4.20;;;15.10;99.90;;;;;;5012362;28;20121;-59
2022/09/06 04:24:36;;;;;;;9.27;4.88;;;15.00;99.90;;;;;;5011005;28;20026;-59
2022/09/06 04:27:02;;;;;;;12.35;5.25;;;15.10;99.90;;;;;;5012102;28;20121;-59
2022/09/06 04:29:27;;;;;;;12.85;5.35;;;15.10;99.90;;;;;;5010040;28;20072;-58
2022/09/06 04:31:53;;;;;;;10.90;5.90;;;15.10;99.90;;;;;;5012304;28;20038;-58
2022/09/06 04:34:18;;;;;;;15.52;6.53;;;15.10;99.90;;;;;;5010535;28;20037;-59
2022/09/06 04:36:44;;;;;;;21.00;5.30;;;15.10;99.90;;;;;;5012165;28;20100;-58
2022/09/06 04:39:10;;;;;;;8.70;5.25;;;15.00;99.90;;;;;;5012499;28;20038;-58
2022/09/06 04:41:35;;;;;;;13.50;5.68;;;15.10;99.90;;;;;;5008490;28;20033;-58
2022/09/06 04:44:01;;;;;;;6.55;4.60;;;15.10;99.90;;;;;;5011688;28;20049;-63
2022/09/06 04:46:29;;;;;;;11.15;5.03;;;15.00;99.90;;;;;;5010433;28;20117;-59
2022/09/06 04:48:55;;;;;;;9.90;5.95;;;15.00;99.90;;;;;;5011947;28;20112;-58
2022/09/06 04:51:23;;;;;;;8.68;5.15;;;14.90;99.90;;;;;;5009731;28;20046;-58
2022/09/06 04:53:49;;;;;;;9.15;4.70;;;14.90;99.90;;;;;;5011898;28;20030;-60
2022/09/06 04:56:17;;;;;;;18.08;4.88;;;15.10;99.90;;;;;;5009663;28;20553;-60
2022/09/06 04:58:45;;;;;;;7.88;4.78;;;15.50;99.90;;;;;;5011823;28;20022;-59
2022/09/06 05:01:11;;;;;;;18.63;5.68;;;15.70;99.90;;;;;;5011857;28;20021;-59
2022/09/06 05:03:37;;;;;;;18.10;5.28;;;15.90;99.90;;;;;;5010065;28;20026;-59
2022/09/06 05:06:04;;;;;;;14.55;5.35;;;16.10;99.90;;;;;;5011599;28;20112;-58
2022/09/06 05:08:30;;;;;;;16.20;5.68;;;16.30;99.90;;;;;;5008952;28;20038;-58
2022/09/06 05:10:55;;;;;;;19.05;5.63;;;16.50;99.90;;;;;;5011515;28;20056;-58
2022/09/06 05:13:21;;;;;;;16.58;5.00;;;16.60;99.90;;;;;;5009666;28;20029;-58
2022/09/06 05:15:47;;;;;;;15.80;4.38;;;16.70;99.90;;;;;;5011278;28;20025;-58
2022/09/06 05:18:13;;;;;;;22.35;4.88;;;16.80;99.90;;;;;;5011511;28;20433;-62
2022/09/06 05:20:39;;;;;;;22.92;4.80;;;16.80;99.90;;;;;;5011407;28;20421;-58
2022/09/06 05:23:05;;;;;;;17.98;5.68;;;16.80;99.90;;;;;;5011307;28;20033;-59
2022/09/06 05:25:30;;;;;;;11.20;3.88;;;16.80;99.90;;;;;;5009699;28;20037;-59
2022/09/06 05:27:56;;;;;;;18.17;4.05;;;16.80;99.90;;;;;;5010461;28;20088;-59
2022/09/06 05:30:22;;;;;;;17.65;4.95;;;16.90;99.90;;;;;;5011605;28;20064;-58
2022/09/06 05:32:47;;;;;;;14.52;3.63;;;16.80;99.90;;;;;;5016131;28;20048;-58
2022/09/06 05:35:13;;;;;;;11.77;3.80;;;16.90;99.90;;;;;;5010172;28;20022;-58
2022/09/06 05:37:39;;;;;;;15.20;5.10;;;16.90;99.90;;;;;;5011132;28;20555;-59
2022/09/06 05:40:05;;;;;;;26.63;3.72;;;16.90;99.90;;;;;;5010150;28;20034;-58
2022/09/06 05:42:31;;;;;;;13.48;4.25;;;16.90;99.90;;;;;;5008578;28;20069;-59
2022/09/06 05:44:56;;;;;;;12.27;3.22;;;17.00;99.90;;;;;;5010682;28;20080;-59
2022/09/06 05:47:22;;;;;;;23.98;3.47;;;17.00;99.90;;;;;;5008733;28;20370;-59
2022/09/06 05:49:47;;;;;;;15.93;3.78;;;17.00;99.90;;;;;;5009688;28;20021;-59
2022/09/06 05:52:13;;;;;;;15.65;3.53;;;17.10;99.90;;;;;;5009738;28;20164;-59
2022/09/06 05:54:39;;;;;;;15.02;3.28;;;17.10;99.90;;;;;;5010742;28;20041;-59
2022/09/06 05:57:04;;;;;;;13.02;2.70;;;17.10;99.90;;;;;;5010163;28;20030;-59
2022/09/06 05:59:30;;;;;;;16.65;3.20;;;17.10;99.90;;;;;;5004123;28;20089;-59
2022/09/06 06:01:56;;;;;;;13.73;3.53;;;17.20;99.90;;;;;;5005665;28;20034;-59
2022/09/06 06:04:22;;;;;;;14.20;2.40;;;17.10;99.90;;;;;;5008346;28;20159;-59
2022/09/06 06:06:48;;;;;;;12.80;2.30;;;17.20;99.90;;;;;;5010249;28;20121;-59
2022/09/06 06:09:15;;;;;;;13.50;2.67;;;17.20;99.90;;;;;;5011132;28;20065;-59
2022/09/06 06:11:41;;;;;;;16.30;2.65;;;17.20;99.90;;;;;;5009922;28;20080;-59
2022/09/06 06:14:07;;;;;;;12.18;3.03;;;17.20;99.90;;;;;;5010223;28;20062;-59
2022/09/06 06:16:33;;;;;;;18.60;2.40;;;17.20;99.90;;;;;;5008512;28;20054;-59
2022/09/06 06:18:58;;;;;;;11.52;2.33;;;17.20;99.90;;;;;;5009749;28;20060;-59
2022/09/06 06:21:27;;;;;;;12.75;2.28;;;17.20;99.90;;;;;;5007696;28;20029;-59
2022/09/06 06:23:57;;;;;;;9.68;2.72;;;17.40;99.90;;;;;;5009959;28;20034;-59
2022/09/06 06:26:24;;;;;;;7.10;1.98;;;17.40;99.90;;;;;;5007614;28;20072;-59
2022/09/06 06:28:50;;;;;;;19.13;2.58;;;17.40;99.90;;;;;;5007189;28;20030;-59
2022/09/06 06:31:16;;;;;;;14.02;2.05;;;17.50;99.90;;;;;;5008103;28;20133;-59
2022/09/06 06:33:43;;;;;;;14.00;2.35;;;17.60;99.90;;;;;;5006928;28;20029;-59
2022/09/06 06:36:20;;;;;;;8.40;2.42;;;17.70;99.90;;;;;;5015234;28;20061;-59
2022/09/06 06:38:46;;;;;;;16.42;2.00;;;17.80;99.90;;;;;;5010852;28;20033;-59
2022/09/06 06:41:14;;;;;;;10.07;1.90;;;17.80;99.90;;;;;;5006137;28;20026;-59
2022/09/06 06:43:40;;;;;;;15.23;2.20;;;17.70;99.90;;;;;;5002341;28;20071;-59
2022/09/06 06:46:11;;;;;;;11.15;2.42;;;17.90;99.90;;;;;;5005898;28;20030;-60
2022/09/06 06:48:39;;;;;;;12.40;2.28;;;18.00;99.90;;;;;;5014477;28;20355;-59
2022/09/06 06:51:05;;;;;;;11.80;2.35;;;17.90;99.90;;;;;;5003329;28;20062;-59
2022/09/06 06:53:31;;;;;;;13.70;2.13;;;18.00;99.90;;;;;;5007851;28;20119;-59
2022/09/06 06:55:57;;;;;;;9.52;2.15;;;17.90;99.90;;;;;;5009590;28;20066;-59
2022/09/06 06:58:24;;;;;;;13.48;2.50;;;18.00;99.90;;;;;;5007586;28;20034;-59
2022/09/06 07:00:50;;;;;;;11.70;1.58;;;18.00;99.90;;;;;;5009749;28;20037;-59
2022/09/06 07:03:15;;;;;;;14.40;3.67;;;18.00;99.90;;;;;;5007673;28;20033;-60
2022/09/06 07:05:46;;;;;;;13.70;2.28;;;18.10;99.90;;;;;;5009591;28;20482;-60
2022/09/06 07:08:11;;;;;;;14.40;2.95;;;18.10;99.90;;;;;;5009353;28;20080;-60
2022/09/06 07:10:37;;;;;;;7.72;1.88;;;18.20;99.90;;;;;;5007298;28;20038;-60
2022/09/06 07:13:03;;;;;;;8.98;1.77;;;18.10;99.90;;;;;;5008629;28;20038;-60
2022/09/06 07:15:29;;;;;;;7.78;1.90;;;18.20;99.90;;;;;;5007661;28;20041;-60
2022/09/06 07:17:55;;;;;;;16.13;2.00;;;18.20;99.90;;;;;;5009033;28;20032;-60
2022/09/06 07:20:22;;;;;;;16.00;3.00;;;18.30;99.90;;;;;;5007721;28;20113;-60
2022/09/06 07:22:58;;;;;;;14.93;2.80;;;18.30;99.90;;;;;;5009000;28;20120;-60
2022/09/06 07:25:24;;;;;;;8.70;1.67;;;18.40;99.90;;;;;;5007891;28;20045;-60
2022/09/06 07:27:57;;;;;;;9.15;2.25;;;18.40;99.90;;;;;;5009352;28;20072;-60
2022/09/06 07:30:22;;;;;;;16.15;1.92;;;18.50;99.90;;;;;;4996974;28;20030;-59
2022/09/06 07:32:48;;;;;;;11.25;1.98;;;18.50;99.90;;;;;;5011392;28;20037;-59
2022/09/06 07:35:14;;;;;;;8.20;1.45;;;18.70;99.90;;;;;;5012262;28;20021;-59
2022/09/06 07:37:39;;;;;;;14.88;2.45;;;18.90;99.90;;;;;;5012749;28;20120;-59
2022/09/06 07:40:05;;;;;;;14.65;2.38;;;19.10;99.90;;;;;;5012902;28;20034;-59
2022/09/06 07:42:31;;;;;;;15.88;3.30;;;19.20;99.90;;;;;;5010719;28;20500;-60
2022/09/06 07:44:57;;;;;;;10.40;1.70;;;19.30;99.90;;;;;;5012698;28;20026;-60
2022/09/06 07:47:22;;;;;;;15.70;2.75;;;19.50;99.90;;;;;;5011534;28;20452;-59
2022/09/06 07:49:48;;;;;;;10.98;1.95;;;19.70;99.90;;;;;;5012907;28;20084;-59
2022/09/06 07:52:14;;;;;;;11.40;1.98;;;19.90;99.90;;;;;;5010617;28;20046;-59
2022/09/06 07:54:39;;;;;;;14.50;2.00;;;19.90;99.90;;;;;;5012835;28;20056;-59
2022/09/06 07:57:05;;;;;;;16.27;2.78;;;20.10;99.90;;;;;;5011958;28;20084;-59
2022/09/06 07:59:31;;;;;;;13.10;2.88;;;20.10;99.90;;;;;;5010904;28;20557;-59
2022/09/06 08:01:57;;;;;;;8.50;1.63;;;20.10;99.90;;;;;;5012921;28;20120;-59
2022/09/06 08:04:22;;;;;;;7.88;1.65;;;20.40;99.90;;;;;;5010686;28;20026;-59
2022/09/06 08:06:49;;;;;;;11.30;1.98;;;20.70;99.90;;;;;;5012227;28;20026;-59
2022/09/06 08:09:15;;;;;;;10.85;1.90;;;20.80;99.90;;;;;;5010633;28;20084;-59
2022/09/06 08:11:41;;;;;;;9.18;2.10;;;20.80;99.90;;;;;;5012630;28;20493;-59
2022/09/06 08:14:08;;;;;;;8.30;1.58;;;20.80;99.90;;;;;;5012301;28;20076;-59
2022/09/06 08:16:36;;;;;;;10.25;1.88;;;20.80;99.90;;;;;;5011225;28;20163;-59
2022/09/06 08:19:07;;;;;;;13.30;2.45;;;20.80;99.90;;;;;;5012030;28;20052;-59
2022/09/06 08:21:33;;;;;;;6.15;1.42;;;20.80;99.90;;;;;;5001807;28;20064;-59
2022/09/06 08:24:02;;;;;;;10.82;1.35;;;20.50;99.90;;;;;;5012678;28;20156;-59
2022/09/06 08:26:30;;;;;;;9.45;1.98;;;20.40;99.90;;;;;;5010293;28;20037;-59
2022/09/06 08:28:59;;;;;;;12.90;2.67;;;20.30;99.90;;;;;;5012335;28;20026;-59
2022/09/06 08:31:26;;;;;;;8.25;1.25;;;20.20;99.90;;;;;;5010241;28;20034;-59
2022/09/06 08:33:53;;;;;;;8.43;1.65;;;20.10;99.90;;;;;;5011892;28;20037;-61
2022/09/06 08:36:19;;;;;;;6.60;1.45;;;20.00;99.90;;;;;;5010020;28;20022;-60
2022/09/06 08:38:45;;;;;;;15.15;2.15;;;20.10;99.90;;;;;;5012111;28;20054;-59
2022/09/06 08:41:13;;;;;;;15.25;2.35;;;20.10;99.90;;;;;;5011727;28;20350;-58
2022/09/06 08:43:48;;;;;;;15.95;2.22;;;20.10;99.90;;;;;;5004021;28;20045;-60
2022/09/06 08:46:17;;;;;;;9.90;1.92;;;20.30;99.90;;;;;;5010052;28;20034;-59
2022/09/06 08:48:43;;;;;;;12.70;1.77;;;20.50;99.90;;;;;;5011697;28;20052;-59
2022/09/06 08:51:27;;;;;;;13.10;2.58;;;20.60;99.90;;;;;;5011406;28;20378;-59
2022/09/06 08:53:58;;;;;;;11.35;1.83;;;20.70;99.90;;;;;;5011545;28;20121;-59
2022/09/06 08:56:31;;;;;;;15.82;3.22;;;20.90;99.90;;;;;;4999798;28;20025;-59
2022/09/06 08:59:05;;;;;;;13.90;2.90;;;20.90;99.90;;;;;;5007876;28;20022;-60
2022/09/06 09:01:57;;;;;;;13.50;2.03;;;21.10;99.90;;;;;;5010207;28;20034;-60
2022/09/06 09:04:26;;;;;;;13.38;2.13;;;21.10;99.90;;;;;;4990713;28;20042;-60
2022/09/06 09:07:04;;;;;;;12.65;2.20;;;21.10;99.90;;;;;;5011658;28;20042;-60
2022/09/06 09:09:31;;;;;;;10.23;1.85;;;21.10;99.90;;;;;;5008898;28;20029;-62
2022/09/06 09:11:59;;;;;;;15.98;2.55;;;21.20;99.90;;;;;;5011064;28;20038;-60
2022/09/06 09:14:34;;;;;;;12.40;2.17;;;21.40;99.90;;;;;;5009726;28;20080;-61
2022/09/06 09:17:22;;;;;;;12.00;1.88;;;21.50;99.90;;;;;;5011253;28;20512;-61
2022/09/06 09:19:47;;;;;;;16.08;3.22;;;21.50;99.90;;;;;;5011160;28;20025;-60
2022/09/06 09:22:18;;;;;;;12.20;1.52;;;21.60;99.90;;;;;;5011460;28;20112;-60
2022/09/06 09:24:47;;;;;;;10.40;2.55;;;21.70;99.90;;;;;;5011356;28;20026;-61
2022/09/06 09:27:17;;;;;;;10.20;1.90;;;21.50;99.90;;;;;;5010831;28;20053;-63
2022/09/06 09:29:54;;;;;;;8.57;2.60;;;21.40;99.90;;;;;;5008774;28;20054;-60
2022/09/06 09:32:35;;;;;;;16.50;2.80;;;21.20;99.90;;;;;;5009313;28;20041;-60
2022/09/06 09:35:30;;;;;;;9.40;1.85;;;21.20;99.90;;;;;;5011150;28;20092;-60
2022/09/06 09:38:01;;;;;;;11.65;2.22;;;21.10;99.90;;;;;;5006187;28;20117;-60
2022/09/06 09:40:31;;;;;;;9.82;1.95;;;21.10;99.90;;;;;;5009361;28;20030;-60
2022/09/06 09:43:26;;;;;;;11.40;2.10;;;21.10;99.90;;;;;;5010289;28;20058;-59
2022/09/06 09:46:21;;;;;;;14.90;2.47;;;21.20;99.90;;;;;;5001404;28;20441;-60
2022/09/06 09:49:08;;;;;;;11.55;1.60;;;21.50;99.90;;;;;;4989170;28;20069;-60
2022/09/06 09:51:37;;;;;;;10.57;1.85;;;21.40;99.90;;;;;;5008650;28;20042;-60
2022/09/06 09:54:06;;;;;;;12.95;2.35;;;21.50;99.90;;;;;;5010276;28;20026;-60
2022/09/06 09:56:42;;;;;;;10.65;2.10;;;21.30;99.90;;;;;;5008102;28;20034;-61
2022/09/06 09:59:36;;;;;;;13.68;2.00;;;21.10;99.90;;;;;;5010427;28;20474;-60
2022/09/06 10:02:23;;;;;;;11.65;1.98;;;21.30;99.90;;;;;;5010273;28;20033;-60
2022/09/06 10:04:51;;;;;;;13.93;2.40;;;21.20;99.90;;;;;;5003519;28;20129;-59
2022/09/06 10:07:20;;;;;;;17.80;2.05;;;21.20;99.90;;;;;;5008651;28;20033;-60
2022/09/06 10:09:48;;;;;;;13.95;2.38;;;21.10;99.90;;;;;;5010564;28;20390;-60
2022/09/06 10:12:27;;;;;;;7.05;1.52;;;21.20;99.90;;;;;;5009755;28;20041;-59
2022/09/06 10:14:54;;;;;;;13.93;2.25;;;21.30;99.90;;;;;;4997990;28;20105;-59
2022/09/06 10:17:33;;;;;;;16.00;2.22;;;21.30;99.90;;;;;;5008806;28;20030;-59
2022/09/06 10:20:07;;;;;;;13.07;2.03;;;21.30;99.90;;;;;;5004823;28;20429;-62
2022/09/06 10:22:56;;;;;;;13.32;2.03;;;21.30;99.90;;;;;;5002824;28;20152;-60
2022/09/06 10:25:38;;;;;;;16.17;2.67;;;21.40;99.90;;;;;;5002114;28;20026;-60
2022/09/06 10:28:10;;;;;;;13.48;2.10;;;21.30;99.90;;;;;;5006087;28;20064;-61
2022/09/06 10:30:44;;;;;;;10.18;1.80;;;21.40;99.90;;;;;;5008348;28;20038;-60
2022/09/06 10:33:28;;;;;;;15.38;2.13;;;21.40;99.90;;;;;;5007840;28;20034;-59
2022/09/06 10:35:56;;;;;;;15.25;1.95;;;21.60;99.90;;;;;;5010176;28;20393;-60
2022/09/06 10:38:57;;;;;;;15.18;2.08;;;21.70;99.90;;;;;;5007829;28;20076;-60
2022/09/06 10:41:31;;;;;;;14.52;1.83;;;21.90;99.90;;;;;;5001820;28;20038;-60
2022/09/06 10:44:17;;;;;;;12.13;2.05;;;21.50;99.90;;;;;;5008308;28;20057;-60
2022/09/06 10:46:44;;;;;;;9.68;1.75;;;21.50;99.90;;;;;;4998342;28;20116;-59
2022/09/06 10:49:16;;;;;;;9.88;2.05;;;21.50;99.90;;;;;;5009498;28;20038;-60
2022/09/06 10:51:51;;;;;;;10.15;1.70;;;21.60;99.90;;;;;;5004550;28;20030;-58
2022/09/06 10:54:22;;;;;;;12.55;1.88;;;21.70;99.90;;;;;;5001435;28;20030;-59
2022/09/06 10:57:01;;;;;;;9.57;1.77;;;21.70;99.90;;;;;;5000495;28;20042;-59
2022/09/06 10:59:33;;;;;;;14.15;3.47;;;21.80;99.90;;;;;;5005678;28;20036;-59
2022/09/06 11:02:36;;;;;;;9.23;2.05;;;21.70;99.90;;;;;;5006922;28;20088;-60
2022/09/06 11:05:11;;;;;;;11.43;1.55;;;21.60;99.90;;;;;;5005413;28;20026;-60
2022/09/06 11:07:41;;;;;;;15.38;2.35;;;21.70;99.90;;;;;;5007015;28;20101;-60
2022/09/06 11:10:39;;;;;;;10.70;1.70;;;21.80;99.90;;;;;;5009095;28;20038;-60
2022/09/06 11:13:07;;;;;;;14.70;2.40;;;21.80;99.90;;;;;;5004015;28;20405;-60
2022/09/06 11:15:59;;;;;;;9.45;2.65;;;21.70;99.90;;;;;;5006801;28;20116;-59
2022/09/06 11:18:45;;;;;;;;;;;21.80;99.90;;;;;;5006514;28;20030;-60
2022/09/06 11:21:29;;;;;;;11.55;1.73;;;21.80;99.90;;;;;;5007915;28;19910;-60
2022/09/06 11:24:15;;;;;;;11.75;2.83;;;22.10;99.90;;;;;;5008780;28;20117;-60
2022/09/06 11:26:56;;;;;;;10.50;1.95;;;22.30;99.90;;;;;;5002109;28;20081;-61
2022/09/06 11:29:24;;;;;;;7.18;1.33;;;22.60;99.90;;;;;;5006386;28;20033;-60
2022/09/06 11:32:23;;;;;;;10.15;2.15;;;22.70;99.90;;;;;;5009551;28;20042;-61
2022/09/06 11:35:01;;;;;;;12.60;2.30;;;22.50;99.90;;;;;;5006180;28;20478;-60
2022/09/06 11:37:29;;;;;;;8.25;1.73;;;22.60;99.90;;;;;;5006971;28;20103;-60
2022/09/06 11:40:21;;;;;;;14.77;1.73;;;22.70;99.90;;;;;;5001326;28;20041;-60
2022/09/06 11:42:50;;;;;;;10.95;2.13;;;23.60;99.90;;;;;;4995426;28;20525;-59
2022/09/06 11:45:20;;;;;;;5.07;1.33;;;24.20;99.90;;;;;;5004043;28;20081;-61
2022/09/06 11:47:49;;;;;;;10.23;2.33;;;24.10;99.90;;;;;;5002417;28;20038;-60
2022/09/06 11:50:23;;;;;;;9.32;1.65;;;24.10;99.90;;;;;;4998383;28;20096;-59
2022/09/06 11:52:56;;;;;;;13.10;2.00;;;23.10;99.90;;;;;;4994906;28;20050;-62
2022/09/06 11:55:36;;;;;;;5.80;2.05;;;22.90;99.90;;;;;;4999125;28;20027;-59
2022/09/06 11:58:18;;;;;;;13.65;2.10;;;23.00;99.90;;;;;;5009879;28;20030;-60
2022/09/06 12:00:45;;;;;;;11.50;1.80;;;23.10;99.90;;;;;;4994529;28;20466;-61
2022/09/06 12:03:42;;;;;;;10.50;2.30;;;23.80;99.90;;;;;;4992336;28;20394;-61
2022/09/06 12:06:34;;;;;;;13.43;2.17;;;24.40;99.90;;;;;;4993510;28;20042;-59
2022/09/06 12:09:00;;;;;;;;;;;24.10;99.90;;;;;;4995620;28;20121;-60
2022/09/06 12:11:35;;;;;;;8.73;1.88;;;24.20;99.90;;;;;;4993247;28;20008;-59
2022/09/06 12:14:21;;;;;;;14.60;1.90;;;24.40;99.90;;;;;;4994962;28;20045;-59
2022/09/06 12:16:59;;;;;;;10.20;1.65;;;25.00;99.90;;;;;;4993050;28;20470;-59
2022/09/06 12:19:48;;;;;;;10.50;2.75;;;25.50;99.90;;;;;;4998789;28;20052;-60
2022/09/06 12:22:36;;;;;;;11.35;2.13;;;24.90;99.90;;;;;;4996163;28;20058;-59
2022/09/06 12:25:06;;;;;;;13.27;1.85;;;24.20;99.90;;;;;;4993625;28;20521;-59
2022/09/06 12:27:36;;;;;;;11.93;2.15;;;24.10;99.90;;;;;;4989469;28;20076;-62
2022/09/06 12:30:03;;;;;;;12.50;1.92;;;24.30;99.90;;;;;;4997141;28;20061;-61
2022/09/06 12:32:39;;;;;;;8.98;1.83;;;24.70;99.90;;;;;;4995781;28;20425;-60
2022/09/06 12:35:16;;;;;;;9.95;1.88;;;25.20;99.90;;;;;;4998172;28;20061;-59
2022/09/06 12:37:54;;;;;;;12.13;2.13;;;25.20;99.90;;;;;;4998663;28;20474;-61
2022/09/06 12:40:21;;;;;;;8.13;1.65;;;25.10;99.90;;;;;;4997615;28;20044;-61
2022/09/06 12:42:49;;;;;;;9.27;2.22;;;25.60;99.90;;;;;;4996807;28;20060;-60
2022/09/06 12:45:18;;;;;;;9.52;1.80;;;25.70;99.90;;;;;;4998418;28;20053;-60
2022/09/06 12:47:44;;;;;;;9.02;1.98;;;25.40;99.90;;;;;;4997534;28;20026;-60
2022/09/06 12:50:16;;;;;;;11.93;1.98;;;25.50;99.90;;;;;;5000107;28;20205;-59
2022/09/06 12:52:54;;;;;;;11.45;1.88;;;25.40;99.90;;;;;;4995807;28;20035;-59
2022/09/06 12:55:32;;;;;;;12.32;2.03;;;24.70;99.90;;;;;;4997498;28;20041;-59
2022/09/06 12:58:10;;;;;;;10.27;1.67;;;25.40;99.90;;;;;;4992044;28;20113;-59
2022/09/06 13:00:41;;;;;;;9.43;2.30;;;25.60;99.90;;;;;;4998709;28;20398;-61
2022/09/06 13:03:15;;;;;;;12.30;2.17;;;25.60;99.90;;;;;;4997684;28;20090;-61